sensor_id;sensor_type;location;lat;lon;timestamp;pressure;altitude;pressure_sealevel;temperature;humidity
30338;BME280;17143;51.888;5.408;2022-10-18T00:01:02;102384.91;;;15.72;100.00
30338;BME280;17143;51.888;5.408;2022-10-18T00:16:09;102376.09;;;15.71;100.00
30338;BME280;17143;51.888;5.408;2022-10-18T00:31:14;102392.50;;;15.67;100.00
30338;BME280;17143;51.888;5.408;2022-10-18T00:46:16;102387.97;;;15.65;100.00
30338;BME280;17143;51.888;5.408;2022-10-18T01:01:18;102384.91;;;15.57;100.00
30338;BME280;17143;51.888;5.408;2022-10-18T01:16:22;102407.47;;;15.54;100.00
30338;BME280;17143;51.888;5.408;2022-10-18T01:31:29;102409.00;;;15.50;100.00
30338;BME280;17143;51.888;5.408;2022-10-18T01:46:33;102400.72;;;15.44;100.00
30338;BME280;17143;51.888;5.408;2022-10-18T02:01:42;102403.34;;;15.30;100.00
30338;BME280;17143;51.888;5.408;2022-10-18T02:16:50;102405.22;;;15.17;100.00
30338;BME280;17143;51.888;5.408;2022-10-18T02:31:58;102396.81;;;15.08;100.00
30338;BME280;17143;51.888;5.408;2022-10-18T02:47:02;102398.06;;;15.00;100.00
30338;BME280;17143;51.888;5.408;2022-10-18T03:02:05;102422.28;;;14.96;100.00
30338;BME280;17143;51.888;5.408;2022-10-18T03:17:07;102416.69;;;14.90;100.00
30338;BME280;17143;51.888;5.408;2022-10-18T03:32:08;102413.88;;;14.87;100.00
30338;BME280;17143;51.888;5.408;2022-10-18T03:47:10;102419.53;;;14.80;100.00
30338;BME280;17143;51.888;5.408;2022-10-18T04:02:12;102412.28;;;14.76;100.00
30338;BME280;17143;51.888;5.408;2022-10-18T04:17:14;102407.66;;;14.72;100.00
30338;BME280;17143;51.888;5.408;2022-10-18T04:32:16;102410.63;;;14.63;100.00
30338;BME280;17143;51.888;5.408;2022-10-18T04:47:18;102414.19;;;14.51;100.00
30338;BME280;17143;51.888;5.408;2022-10-18T05:02:21;102434.38;;;14.39;100.00
30338;BME280;17143;51.888;5.408;2022-10-18T05:17:22;102425.50;;;14.24;100.00
30338;BME280;17143;51.888;5.408;2022-10-18T05:32:24;102436.22;;;14.14;100.00
30338;BME280;17143;51.888;5.408;2022-10-18T05:47:26;102439.84;;;14.02;100.00
30338;BME280;17143;51.888;5.408;2022-10-18T06:02:28;102465.94;;;14.01;100.00
30338;BME280;17143;51.888;5.408;2022-10-18T06:17:30;102483.34;;;13.87;100.00
30338;BME280;17143;51.888;5.408;2022-10-18T06:32:32;102506.72;;;13.71;100.00
30338;BME280;17143;51.888;5.408;2022-10-18T06:47:34;102514.94;;;13.64;100.00
30338;BME280;17143;51.888;5.408;2022-10-18T07:02:36;102550.56;;;13.49;100.00
30338;BME280;17143;51.888;5.408;2022-10-18T07:17:38;102571.72;;;13.52;100.00
30338;BME280;17143;51.888;5.408;2022-10-18T07:32:40;102589.97;;;13.64;100.00
30338;BME280;17143;51.888;5.408;2022-10-18T07:47:42;102610.41;;;14.19;100.00
30338;BME280;17143;51.888;5.408;2022-10-18T08:02:44;102619.03;;;15.36;100.00
30338;BME280;17143;51.888;5.408;2022-10-18T08:17:46;102627.78;;;15.90;100.00
30338;BME280;17143;51.888;5.408;2022-10-18T08:32:48;102638.81;;;19.16;100.00
30338;BME280;17143;51.888;5.408;2022-10-18T08:47:50;102648.00;;;21.88;88.69
30338;BME280;17143;51.888;5.408;2022-10-18T09:03:08;102648.53;;;24.51;76.85
30338;BME280;17143;51.888;5.408;2022-10-18T09:18:25;102649.50;;;25.25;70.11
30338;BME280;17143;51.888;5.408;2022-10-18T09:33:48;102658.25;;;25.58;64.89
30338;BME280;17143;51.888;5.408;2022-10-18T09:48:55;102661.16;;;25.30;63.08
30338;BME280;17143;51.888;5.408;2022-10-18T10:03:59;102669.66;;;25.14;62.10
30338;BME280;17143;51.888;5.408;2022-10-18T10:19:01;102685.41;;;24.36;61.25
30338;BME280;17143;51.888;5.408;2022-10-18T10:34:04;102686.81;;;23.94;63.29
30338;BME280;17143;51.888;5.408;2022-10-18T10:49:16;102692.84;;;23.87;63.03
30338;BME280;17143;51.888;5.408;2022-10-18T11:04:27;102703.59;;;23.90;65.39
30338;BME280;17143;51.888;5.408;2022-10-18T11:19:35;102711.41;;;23.29;63.90
30338;BME280;17143;51.888;5.408;2022-10-18T11:34:49;102701.16;;;23.14;61.82
30338;BME280;17143;51.888;5.408;2022-10-18T11:50:04;102695.34;;;22.49;59.19
30338;BME280;17143;51.888;5.408;2022-10-18T12:05:09;102689.31;;;22.78;61.58
30338;BME280;17143;51.888;5.408;2022-10-18T12:20:16;102679.41;;;22.49;60.44
30338;BME280;17143;51.888;5.408;2022-10-18T12:35:20;102674.19;;;23.02;62.77
30338;BME280;17143;51.888;5.408;2022-10-18T12:50:28;102681.50;;;23.09;60.05
30338;BME280;17143;51.888;5.408;2022-10-18T13:05:55;102665.72;;;22.87;55.16
30338;BME280;17143;51.888;5.408;2022-10-18T13:21:09;102648.66;;;23.07;55.27
30338;BME280;17143;51.888;5.408;2022-10-18T13:36:23;102644.47;;;23.15;54.84
30338;BME280;17143;51.888;5.408;2022-10-18T13:51:43;102657.84;;;22.90;52.90
30338;BME280;17143;51.888;5.408;2022-10-18T14:06:51;102658.59;;;22.86;56.42
30338;BME280;17143;51.888;5.408;2022-10-18T14:21:58;102655.53;;;22.74;56.44
30338;BME280;17143;51.888;5.408;2022-10-18T14:37:04;102652.16;;;22.54;57.48
30338;BME280;17143;51.888;5.408;2022-10-18T14:52:10;102664.31;;;21.99;57.58
30338;BME280;17143;51.888;5.408;2022-10-18T15:07:15;102662.75;;;21.36;55.43
30338;BME280;17143;51.888;5.408;2022-10-18T15:22:21;102676.00;;;21.13;55.67
30338;BME280;17143;51.888;5.408;2022-10-18T15:37:30;102660.50;;;20.60;58.79
30338;BME280;17143;51.888;5.408;2022-10-18T15:52:37;102678.41;;;20.26;60.74
30338;BME280;17143;51.888;5.408;2022-10-18T16:07:39;102670.75;;;19.75;62.41
30338;BME280;17143;51.888;5.408;2022-10-18T16:22:41;102687.28;;;19.34;64.34
30338;BME280;17143;51.888;5.408;2022-10-18T16:37:43;102697.25;;;18.87;65.96
30338;BME280;17143;51.888;5.408;2022-10-18T16:52:45;102701.47;;;18.33;67.98
30338;BME280;17143;51.888;5.408;2022-10-18T17:07:47;102709.34;;;17.99;70.38
30338;BME280;17143;51.888;5.408;2022-10-18T17:22:49;102732.25;;;17.68;72.62
30338;BME280;17143;51.888;5.408;2022-10-18T17:37:51;102742.66;;;17.21;74.80
30338;BME280;17143;51.888;5.408;2022-10-18T17:52:53;102757.78;;;16.80;76.98
30338;BME280;17143;51.888;5.408;2022-10-18T18:07:55;102761.22;;;16.36;78.48
30338;BME280;17143;51.888;5.408;2022-10-18T18:22:57;102762.19;;;16.09;80.36
30338;BME280;17143;51.888;5.408;2022-10-18T18:37:59;102764.31;;;15.74;81.58
30338;BME280;17143;51.888;5.408;2022-10-18T18:53:01;102778.88;;;15.43;82.69
30338;BME280;17143;51.888;5.408;2022-10-18T19:08:04;102785.31;;;15.08;83.86
30338;BME280;17143;51.888;5.408;2022-10-18T19:23:06;102791.94;;;14.77;85.30
30338;BME280;17143;51.888;5.408;2022-10-18T19:38:08;102776.41;;;14.42;87.22
30338;BME280;17143;51.888;5.408;2022-10-18T19:53:10;102785.13;;;14.18;87.81
30338;BME280;17143;51.888;5.408;2022-10-18T20:08:12;102791.16;;;13.92;87.83
30338;BME280;17143;51.888;5.408;2022-10-18T20:23:14;102793.56;;;13.66;88.99
30338;BME280;17143;51.888;5.408;2022-10-18T20:38:16;102781.00;;;13.26;89.78
30338;BME280;17143;51.888;5.408;2022-10-18T20:53:19;102771.53;;;13.05;90.03
30338;BME280;17143;51.888;5.408;2022-10-18T21:08:21;102775.69;;;12.79;91.11
30338;BME280;17143;51.888;5.408;2022-10-18T21:23:23;102758.38;;;12.58;92.65
30338;BME280;17143;51.888;5.408;2022-10-18T21:38:24;102776.59;;;12.35;92.38
30338;BME280;17143;51.888;5.408;2022-10-18T21:53:26;102763.38;;;12.00;93.27
30338;BME280;17143;51.888;5.408;2022-10-18T22:08:29;102766.25;;;11.82;94.54
30338;BME280;17143;51.888;5.408;2022-10-18T22:23:31;102768.38;;;11.66;94.91
30338;BME280;17143;51.888;5.408;2022-10-18T22:38:34;102759.22;;;11.39;95.98
30338;BME280;17143;51.888;5.408;2022-10-18T22:53:37;102756.59;;;11.17;97.42
30338;BME280;17143;51.888;5.408;2022-10-18T23:08:39;102765.47;;;11.09;97.58
30338;BME280;17143;51.888;5.408;2022-10-18T23:23:41;102757.69;;;10.89;98.59
30338;BME280;17143;51.888;5.408;2022-10-18T23:38:43;102753.66;;;10.72;98.30
30338;BME280;17143;51.888;5.408;2022-10-18T23:53:45;102754.59;;;10.53;98.06
